Time;durP1;ratioP1;P1;durP2;ratioP2;P2;SDS_P1;SDS_P2;PMS_P1;PMS_P2;Temp;Humidity;BMP_temperature;BMP_pressure;BME280_temperature;BME280_humidity;BME280_pressure;Samples;Min_cycle;Max_cycle;Signal;HPM_P1;HPM_P2
2022/03/12 00:00:26;;;;;;;8.15;5.38;;;;;;;7.80;41.49;67641.13;5096497;27;20044;-84
2022/03/12 00:02:52;;;;;;;10.88;6.13;;;;;;;7.80;41.71;67641.13;5072598;28;20036;-83
2022/03/12 00:05:18;;;;;;;10.10;6.35;;;;;;;7.79;43.90;67642.06;5076543;28;20132;-89
2022/03/12 00:07:43;;;;;;;10.95;6.53;;;;;;;7.77;42.37;67642.44;5092927;27;20035;-88
2022/03/12 00:10:13;;;;;;;10.23;6.05;;;;;;;7.76;43.79;67641.88;5085944;28;20557;-89
2022/03/12 00:12:40;;;;;;;9.80;6.15;;;;;;;7.71;42.97;67633.56;5089105;28;20040;-85
2022/03/12 00:15:09;;;;;;;9.10;6.22;;;;;;;7.68;44.65;67630.16;5078029;28;20131;-88
2022/03/12 00:17:36;;;;;;;8.70;6.30;;;;;;;7.61;44.40;67619.59;5100426;27;20032;-85
2022/03/12 00:20:09;;;;;;;9.43;5.97;;;;;;;7.58;43.27;67616.19;5083475;28;20036;-87
2022/03/12 00:22:34;;;;;;;12.35;6.75;;;;;;;7.56;44.49;67613.94;5080596;28;20503;-85
2022/03/12 00:25:00;;;;;;;10.73;6.78;;;;;;;7.56;44.98;67613.94;5089986;28;20039;-90
2022/03/12 00:27:25;;;;;;;9.20;5.63;;;;;;;7.50;44.25;67610.34;5068803;27;20032;-87
2022/03/12 00:29:52;;;;;;;10.40;6.00;;;;;;;7.49;45.02;67606.03;5081770;28;20044;-85
2022/03/12 00:32:17;;;;;;;10.90;6.13;;;;;;;7.48;43.98;67608.09;5079810;28;20051;-83
2022/03/12 00:34:43;;;;;;;10.43;6.32;;;;;;;7.47;46.73;67604.88;5083144;27;20035;-83
2022/03/12 00:37:09;;;;;;;10.63;6.85;;;;;;;7.42;45.49;67601.88;5079710;28;20036;-85
2022/03/12 00:39:35;;;;;;;9.35;5.72;;;;;;;7.35;44.71;67591.31;5082188;28;20714;-85
2022/03/12 00:42:00;;;;;;;10.52;6.15;;;;;;;7.31;44.47;67592.06;5100269;27;20051;-87
2022/03/12 00:44:26;;;;;;;13.57;7.43;;;;;;;7.30;46.07;67585.63;5092684;27;20050;-84
2022/03/12 00:46:51;;;;;;;10.73;6.05;;;;;;;7.26;43.62;67581.13;5072790;28;20047;-83
2022/03/12 00:49:16;;;;;;;11.38;6.65;;;;;;;7.26;46.64;67581.13;5091312;28;20036;-86
2022/03/12 00:51:44;;;;;;;9.82;6.35;;;;;;;7.22;45.32;67579.81;5089849;27;20040;-84
2022/03/12 00:54:10;;;;;;;10.48;6.75;;;;;;;7.23;45.40;67580.38;5097404;27;20192;-88
2022/03/12 00:56:39;;;;;;;12.43;7.60;;;;;;;7.21;46.57;67581.31;5074174;27;20481;-85
2022/03/12 00:59:05;;;;;;;;;;;;;;;7.19;43.17;67573.78;5068702;28;20048;-87
2022/03/12 01:01:30;;;;;;;12.55;6.72;;;;;;;7.08;45.73;67563.97;5078688;28;19912;-87
2022/03/12 01:03:55;;;;;;;9.35;7.13;;;;;;;7.07;47.00;67560.19;5083852;28;20054;-84
2022/03/12 01:06:22;;;;;;;10.65;6.50;;;;;;;7.12;47.45;67565.28;5064153;28;20051;-89
2022/03/12 01:08:47;;;;;;;9.25;6.43;;;;;;;7.09;47.02;67562.44;5083672;28;20671;-89
2022/03/12 01:11:13;;;;;;;9.15;6.30;;;;;;;7.10;46.87;67565.66;5092503;28;20126;-87
2022/03/12 01:13:39;;;;;;;9.95;6.28;;;;;;;7.13;45.61;67569.03;5074890;27;20372;-87
2022/03/12 01:16:07;;;;;;;9.40;6.35;;;;;;;7.10;46.51;67563.56;5053668;28;20396;-87
2022/03/12 01:18:38;;;;;;;9.23;6.38;;;;;;;7.11;46.37;67569.44;5078188;28;20048;-85
2022/03/12 01:21:17;;;;;;;9.10;6.55;;;;;;;7.06;47.29;67558.50;5105387;27;20044;-86
2022/03/12 01:23:50;;;;;;;10.98;6.10;;;;;;;7.07;46.64;67559.59;5082338;27;20068;-84
2022/03/12 01:26:21;;;;;;;11.70;6.65;;;;;;;7.07;46.87;67559.59;5069003;27;20048;-87
2022/03/12 01:28:48;;;;;;;8.63;5.95;;;;;;;7.04;45.59;67556.78;5075456;28;20072;-85
2022/03/12 01:31:16;;;;;;;10.48;6.80;;;;;;;7.04;44.02;67556.22;5078740;28;20063;-86
2022/03/12 01:33:42;;;;;;;12.13;7.13;;;;;;;7.05;46.98;67560.00;5095534;27;20042;-83
2022/03/12 01:36:09;;;;;;;10.75;6.55;;;;;;;7.06;46.98;67559.06;5105272;27;20036;-82
2022/03/12 01:38:46;;;;;;;10.45;6.70;;;;;;;;;;5107640;27;20065;-89
2022/03/12 01:41:12;;;;;;;10.82;6.25;;;;;;;6.97;46.20;67552.06;5082977;28;20715;-88
2022/03/12 01:43:38;;;;;;;10.45;7.30;;;;;;;7.01;47.32;67553.38;5100557;28;20069;-84
2022/03/12 01:46:10;;;;;;;11.35;6.72;;;;;;;7.00;47.02;67552.25;5105129;27;20040;-85
2022/03/12 01:48:50;;;;;;;12.73;7.13;;;;;;;6.99;44.73;67557.00;5101490;27;20028;-90
2022/03/12 01:51:17;;;;;;;11.65;6.95;;;;;;;6.99;46.70;67551.13;5081369;28;20050;-87
2022/03/12 01:53:43;;;;;;;9.45;6.65;;;;;;;7.00;47.49;67552.25;5096003;28;20032;-84
2022/03/12 01:56:10;;;;;;;10.48;7.07;;;;;;;7.03;48.47;67555.66;5089752;28;20046;-89
2022/03/12 01:58:36;;;;;;;12.35;6.97;;;;;;;7.03;47.22;67557.75;5106437;27;20113;-85
2022/03/12 02:01:06;;;;;;;11.73;7.32;;;;;;;7.00;47.96;67554.91;5104885;27;20039;-84
2022/03/12 02:03:32;;;;;;;10.95;7.03;;;;;;;7.05;47.31;67557.34;5056439;28;20036;-85
2022/03/12 02:05:59;;;;;;;12.48;7.43;;;;;;;7.00;48.06;67552.81;5072065;28;20051;-88
2022/03/12 02:08:27;;;;;;;11.95;7.40;;;;;;;6.97;47.66;67552.06;5095659;27;20664;-88
2022/03/12 02:10:57;;;;;;;10.13;6.43;;;;;;;6.94;47.64;67545.47;5118719;27;20058;-86
2022/03/12 02:13:24;;;;;;;10.07;6.68;;;;;;;6.92;48.27;67543.22;5076734;27;20835;-85
2022/03/12 02:16:06;;;;;;;14.10;7.57;;;;;;;6.91;49.78;67542.66;5097292;27;20040;-85
2022/03/12 02:18:31;;;;;;;10.20;6.65;;;;;;;6.83;45.27;67533.59;5075424;28;20056;-85
2022/03/12 02:20:58;;;;;;;10.63;6.70;;;;;;;6.86;47.64;67537.00;5068411;28;20092;-88
2022/03/12 02:23:26;;;;;;;10.65;6.53;;;;;;;6.87;48.26;67542.84;5080336;28;20054;-84
2022/03/12 02:25:52;;;;;;;10.35;6.68;;;;;;;6.88;48.45;67539.25;5080180;28;20054;-89
2022/03/12 02:28:18;;;;;;;12.15;7.25;;;;;;;;;;5086540;28;20035;-85
2022/03/12 02:30:51;;;;;;;9.05;6.70;;;;;;;6.83;49.05;67536.25;5087755;27;20066;-89
2022/03/12 02:33:27;;;;;;;12.88;7.53;;;;;;;6.85;48.46;67538.50;5091379;28;20075;-83
2022/03/12 02:35:53;;;;;;;10.65;7.18;;;;;;;6.85;46.73;67541.16;5107746;27;20523;-84
2022/03/12 02:38:20;;;;;;;14.00;7.28;;;;;;;6.86;46.66;67539.06;5089272;28;20040;-85
2022/03/12 02:40:48;;;;;;;12.40;7.75;;;;;;;6.87;48.05;67542.84;5061980;28;20048;-87
2022/03/12 02:43:13;;;;;;;10.43;7.20;;;;;;;6.89;47.65;67545.09;5084515;28;20504;-87
2022/03/12 02:45:40;;;;;;;11.00;6.88;;;;;;;6.96;47.37;67547.72;5092052;28;20048;-88
2022/03/12 02:48:10;;;;;;;10.75;7.63;;;;;;;7.01;46.60;67553.94;5100204;27;20043;-88
2022/03/12 02:50:36;;;;;;;11.27;7.63;;;;;;;7.06;47.07;67563.78;5083950;27;20039;-84
2022/03/12 02:53:02;;;;;;;10.15;7.38;;;;;;;7.08;47.58;67561.31;5097889;27;20032;-84
2022/03/12 02:55:27;;;;;;;9.60;6.93;;;;;;;7.12;48.00;67565.84;5097667;27;20048;-88
2022/03/12 02:57:53;;;;;;;9.18;5.63;;;;;;;7.14;46.63;67567.53;5098569;27;20552;-88
2022/03/12 03:00:20;;;;;;;10.05;7.30;;;;;;;7.18;47.05;67577.34;5086179;28;20031;-89
2022/03/12 03:02:53;;;;;;;9.43;6.43;;;;;;;7.22;46.55;67576.56;5106717;27;20036;-91
2022/03/12 03:05:28;;;;;;;10.48;7.40;;;;;;;7.27;47.16;67581.69;5069162;28;20028;-83
2022/03/12 03:07:56;;;;;;;10.98;6.55;;;;;;;7.29;46.00;67584.50;5091634;28;20043;-85
2022/03/12 03:10:34;;;;;;;9.77;6.82;;;;;;;7.32;45.24;67587.34;5089450;28;20664;-84
2022/03/12 03:13:16;;;;;;;12.50;7.18;;;;;;;7.37;46.97;67596.22;5063004;28;20565;-88
2022/03/12 03:15:46;;;;;;;13.40;6.63;;;;;;;7.35;44.57;67590.72;5104673;27;20039;-87
2022/03/12 03:18:13;;;;;;;10.00;6.68;;;;;;;;;;5082020;28;20537;-90
2022/03/12 03:20:38;;;;;;;11.95;6.53;;;;;;;;;;5093395;27;20027;-85
2022/03/12 03:23:06;;;;;;;11.65;6.90;;;;;;;7.43;46.98;67599.78;5074299;28;20109;-87
2022/03/12 03:25:32;;;;;;;11.48;7.28;;;;;;;7.44;47.52;67600.91;5093431;27;20063;-89
2022/03/12 03:27:57;;;;;;;13.95;6.70;;;;;;;7.42;45.36;67604.53;5094506;28;20039;-88
2022/03/12 03:30:23;;;;;;;11.93;6.25;;;;;;;7.44;45.18;67600.91;5077300;28;20044;-82
2022/03/12 03:32:48;;;;;;;10.38;7.00;;;;;;;7.51;44.71;67608.84;5062621;27;20115;-84
2022/03/12 03:35:13;;;;;;;8.77;6.20;;;;;;;7.55;43.68;67615.47;5098501;28;20043;-88
2022/03/12 03:37:39;;;;;;;11.15;7.15;;;;;;;7.58;45.27;67616.19;5094013;27;20040;-86
2022/03/12 03:40:05;;;;;;;10.55;6.82;;;;;;;7.57;44.45;67615.63;5075839;28;20496;-86
2022/03/12 03:42:30;;;;;;;12.65;7.50;;;;;;;;;;5075843;27;20043;-85
2022/03/12 03:45:02;;;;;;;11.05;6.85;;;;;;;7.61;45.48;67619.59;5112657;27;20407;-85
2022/03/12 03:47:28;;;;;;;10.00;7.32;;;;;;;7.61;46.83;67622.25;5081033;27;20040;-87
2022/03/12 03:49:53;;;;;;;12.07;8.02;;;;;;;;;;5095204;28;20097;-90
2022/03/12 03:52:18;;;;;;;11.27;6.85;;;;;;;7.62;45.26;67623.97;5086973;28;20035;-89
2022/03/12 03:54:44;;;;;;;13.15;7.28;;;;;;;7.60;44.98;67619.03;5058875;27;20476;-83
2022/03/12 03:57:13;;;;;;;11.57;7.38;;;;;;;7.60;46.19;67621.13;5074572;28;20459;-83
2022/03/12 03:59:38;;;;;;;11.23;6.87;;;;;;;7.62;43.60;67623.97;5091202;27;20115;-84
2022/03/12 04:02:04;;;;;;;11.77;7.28;;;;;;;7.62;45.35;67620.72;5077761;28;20444;-89
2022/03/12 04:04:33;;;;;;;11.18;7.18;;;;;;;7.60;46.99;67621.69;5081077;28;20118;-85
2022/03/12 04:06:59;;;;;;;11.27;7.35;;;;;;;7.59;46.64;67617.31;5096866;28;20467;-88
2022/03/12 04:09:24;;;;;;;9.75;7.38;;;;;;;7.59;44.46;67620.53;5087115;28;20042;-83
2022/03/12 04:11:50;;;;;;;10.82;7.50;;;;;;;7.58;46.59;67616.19;5071709;27;20046;-86
2022/03/12 04:14:15;;;;;;;13.02;7.70;;;;;;;7.54;46.33;67617.53;5084939;28;20043;-83
2022/03/12 04:16:43;;;;;;;12.15;7.75;;;;;;;7.52;47.37;67609.97;5071353;28;20134;-82
2022/03/12 04:19:09;;;;;;;12.88;7.95;;;;;;;7.50;48.17;67607.16;5092572;28;20081;-82
2022/03/12 04:21:34;;;;;;;13.13;7.65;;;;;;;7.44;47.24;67601.47;5108650;27;20622;-82
2022/03/12 04:24:00;;;;;;;12.10;7.25;;;;;;;7.47;47.31;67609.59;5084318;28;20392;-85
2022/03/12 04:26:26;;;;;;;10.93;7.13;;;;;;;7.45;47.66;67602.63;5072643;28;20040;-86
2022/03/12 04:28:51;;;;;;;9.77;6.85;;;;;;;7.45;46.37;67607.91;5078473;28;20093;-86
2022/03/12 04:31:18;;;;;;;11.93;6.80;;;;;;;7.45;45.09;67607.34;5079111;28;20040;-84
2022/03/12 04:33:43;;;;;;;11.82;7.75;;;;;;;7.48;46.90;67605.47;5068756;28;20051;-86
2022/03/12 04:36:09;;;;;;;11.55;7.07;;;;;;;7.48;45.95;67605.47;5056394;28;20123;-89
2022/03/12 04:38:36;;;;;;;12.18;8.05;;;;;;;;;;5103847;27;20048;-84
2022/03/12 04:41:03;;;;;;;11.50;7.53;;;;;;;7.41;46.32;67598.09;5091168;28;20036;-86
2022/03/12 04:43:30;;;;;;;11.85;7.43;;;;;;;7.41;45.73;67600.16;5096212;28;20096;-88
2022/03/12 04:45:58;;;;;;;11.38;8.13;;;;;;;7.39;48.39;67600.56;5068658;28;20055;-84
2022/03/12 04:48:26;;;;;;;14.32;8.27;;;;;;;7.37;46.91;67595.66;5076363;28;20044;-86
2022/03/12 04:50:53;;;;;;;12.45;7.53;;;;;;;7.33;47.51;67588.47;5075965;28;20056;-87
2022/03/12 04:53:26;;;;;;;10.20;6.97;;;;;;;7.28;47.14;67583.38;5067166;28;20064;-86
2022/03/12 04:55:54;;;;;;;15.48;8.30;;;;;;;7.22;48.36;67581.88;5081886;28;20039;-89
2022/03/12 04:58:25;;;;;;;12.10;7.70;;;;;;;7.22;49.74;67576.56;5070871;28;20044;-87
2022/03/12 05:00:57;;;;;;;13.40;7.80;;;;;;;7.16;47.42;67569.78;5088914;27;20130;-90
2022/03/12 05:03:24;;;;;;;14.13;8.27;;;;;;;7.13;49.34;67571.69;5055542;28;20044;-89
2022/03/12 05:05:53;;;;;;;14.77;8.50;;;;;;;7.11;49.15;67569.44;5104806;27;20044;-87
2022/03/12 05:08:28;;;;;;;11.88;8.05;;;;;;;7.03;49.77;67555.66;5087865;28;20122;-86
2022/03/12 05:10:56;;;;;;;15.07;8.45;;;;;;;7.01;51.15;67559.25;5086386;28;20044;-85
2022/03/12 05:13:23;;;;;;;11.75;8.13;;;;;;;7.00;50.31;67552.25;5087981;28;20036;-90
2022/03/12 05:15:55;;;;;;;12.80;7.75;;;;;;;7.01;50.19;67553.94;5068336;28;20168;-91
2022/03/12 05:18:25;;;;;;;12.13;7.57;;;;;;;7.01;51.19;67556.59;5079436;28;20530;-84
2022/03/12 05:20:57;;;;;;;13.77;8.05;;;;;;;7.01;50.34;67556.59;5073831;28;20040;-86
2022/03/12 05:23:29;;;;;;;11.05;7.88;;;;;;;7.00;51.07;67552.25;5081952;28;20027;-85
2022/03/12 05:25:57;;;;;;;14.27;7.82;;;;;;;6.98;49.66;67553.19;5089447;28;20045;-88
2022/03/12 05:28:30;;;;;;;11.88;7.47;;;;;;;6.98;50.46;67553.19;5078696;27;20058;-85
2022/03/12 05:30:59;;;;;;;14.02;7.38;;;;;;;6.99;51.30;67551.69;5083158;28;20446;-86
2022/03/12 05:33:27;;;;;;;13.80;8.38;;;;;;;7.01;52.21;67553.38;5085225;28;20054;-88
2022/03/12 05:35:54;;;;;;;14.23;7.78;;;;;;;7.00;51.30;67552.25;5095458;28;20487;-85
2022/03/12 05:38:22;;;;;;;11.30;8.13;;;;;;;6.99;50.87;67554.34;5102730;27;20062;-88
2022/03/12 05:40:48;;;;;;;12.15;7.97;;;;;;;;;;5090027;28;20109;-89
2022/03/12 05:43:15;;;;;;;14.32;8.88;;;;;;;6.99;50.43;67551.13;5086896;28;20508;-89
2022/03/12 05:45:52;;;;;;;12.80;7.88;;;;;;;7.02;50.10;67557.19;5099689;27;20032;-83
2022/03/12 05:48:19;;;;;;;14.75;8.18;;;;;;;7.03;51.73;67555.66;5088013;28;20031;-82
2022/03/12 05:50:48;;;;;;;11.25;8.32;;;;;;;7.06;52.64;67564.34;5099957;27;20040;-89
2022/03/12 05:53:17;;;;;;;13.07;8.80;;;;;;;7.06;52.24;67559.06;5101586;27;20052;-87
2022/03/12 05:55:47;;;;;;;11.75;7.78;;;;;;;7.01;51.31;67553.94;5080212;27;20048;-86
2022/03/12 05:58:17;;;;;;;15.27;9.77;;;;;;;6.95;51.16;67547.16;5097201;27;20044;-85
2022/03/12 06:00:43;;;;;;;14.30;8.93;;;;;;;6.95;53.10;67546.59;5063234;28;20032;-88
2022/03/12 06:03:12;;;;;;;13.48;7.85;;;;;;;6.88;53.54;67541.34;5065831;28;20040;-84
2022/03/12 06:05:41;;;;;;;11.75;8.88;;;;;;;6.84;53.41;67534.72;5084333;27;20067;-86
2022/03/12 06:08:08;;;;;;;15.02;9.48;;;;;;;6.82;53.91;67535.13;5080471;28;20140;-84
2022/03/12 06:10:37;;;;;;;13.20;8.10;;;;;;;6.78;52.47;67527.94;5076273;27;20044;-86
2022/03/12 06:13:03;;;;;;;13.25;9.07;;;;;;;6.71;54.15;67520.59;5055275;27;20070;-86
2022/03/12 06:15:30;;;;;;;16.77;9.90;;;;;;;6.69;55.28;67520.97;5084843;28;20044;-88
2022/03/12 06:18:04;;;;;;;13.90;9.43;;;;;;;6.63;55.85;67516.81;5071802;28;20060;-88
2022/03/12 06:20:30;;;;;;;16.55;9.85;;;;;;;6.61;55.45;67511.91;5083208;28;20031;-86
2022/03/12 06:22:55;;;;;;;13.85;8.52;;;;;;;6.57;55.68;67506.84;5070378;28;20469;-85
2022/03/12 06:25:23;;;;;;;12.93;8.57;;;;;;;6.55;54.64;67502.47;5094554;27;20046;-89
2022/03/12 06:27:54;;;;;;;15.98;10.07;;;;;;;6.59;55.48;67506.44;5101989;27;20375;-87
2022/03/12 06:30:22;;;;;;;16.20;8.57;;;;;;;6.55;55.58;67510.41;5082659;28;20044;-89
2022/03/12 06:32:48;;;;;;;14.57;9.15;;;;;;;6.64;56.01;67512.09;5102443;27;20028;-86
2022/03/12 06:35:16;;;;;;;15.68;9.15;;;;;;;6.64;56.82;67512.66;5093973;28;20036;-90
2022/03/12 06:37:44;;;;;;;14.02;8.48;;;;;;;6.60;56.72;67510.78;5098383;28;20044;-87
2022/03/12 06:40:16;;;;;;;13.90;9.23;;;;;;;6.60;57.43;67508.16;5076373;28;20059;-89
2022/03/12 06:42:51;;;;;;;12.43;8.13;;;;;;;6.60;55.72;67510.22;5082560;28;20042;-84
2022/03/12 06:45:21;;;;;;;15.43;9.27;;;;;;;6.60;55.06;67507.59;5086641;28;20048;-86
2022/03/12 06:47:47;;;;;;;16.17;8.57;;;;;;;6.70;57.49;67518.88;5091879;28;20059;-87
2022/03/12 06:50:17;;;;;;;16.27;9.32;;;;;;;6.76;58.18;67526.25;5077762;28;20059;-85
2022/03/12 06:52:47;;;;;;;15.63;9.27;;;;;;;6.83;56.91;67538.88;5081766;28;20035;-83
2022/03/12 06:55:13;;;;;;;16.70;9.27;;;;;;;6.95;57.57;67552.47;5093928;28;20484;-89
2022/03/12 06:57:38;;;;;;;12.05;8.43;;;;;;;;;;5075691;28;20047;-84
2022/03/12 07:00:05;;;;;;;19.92;9.05;;;;;;;7.13;57.71;67566.97;5106236;27;20123;-91
2022/03/12 07:02:30;;;;;;;15.07;9.00;;;;;;;;;;5074908;28;20078;-87
2022/03/12 07:04:56;;;;;;;16.13;8.88;;;;;;;7.32;56.81;67582.03;5068844;28;20064;-86
2022/03/12 07:07:21;;;;;;;12.52;8.75;;;;;;;7.43;57.57;67600.34;5113793;27;20449;-86
2022/03/12 07:09:46;;;;;;;17.20;8.10;;;;;;;7.52;55.80;67609.41;5085205;28;20044;-89
2022/03/12 07:12:12;;;;;;;15.88;9.38;;;;;;;7.59;55.88;67617.31;5091320;28;20117;-85
2022/03/12 07:14:37;;;;;;;13.18;8.25;;;;;;;7.67;56.09;67629.03;5099163;27;20157;-88
2022/03/12 07:17:03;;;;;;;14.35;8.70;;;;;;;7.73;55.33;67635.25;5077382;28;20043;-90
2022/03/12 07:19:28;;;;;;;16.63;8.93;;;;;;;7.79;56.91;67639.41;5079964;28;20040;-84
2022/03/12 07:21:53;;;;;;;14.35;9.07;;;;;;;7.84;55.92;67648.28;5083118;28;20071;-88
2022/03/12 07:24:19;;;;;;;13.25;7.97;;;;;;;7.90;56.44;67652.41;5079528;28;20608;-87
2022/03/12 07:26:46;;;;;;;16.40;9.77;;;;;;;;;;5093739;27;20044;-88
2022/03/12 07:29:12;;;;;;;14.20;8.88;;;;;;;8.04;56.28;67667.16;5090062;28;20039;-85
2022/03/12 07:31:38;;;;;;;14.13;8.70;;;;;;;8.14;56.45;67681.13;5114461;27;20047;-87
2022/03/12 07:34:05;;;;;;;14.35;8.70;;;;;;;8.23;55.14;67688.69;5105784;28;20603;-90
2022/03/12 07:36:31;;;;;;;11.57;7.47;;;;;;;;;;5111981;27;20039;-89
2022/03/12 07:39:02;;;;;;;15.40;7.85;;;;;;;8.45;56.30;67712.47;5111194;27;20044;-86
2022/03/12 07:41:28;;;;;;;14.45;9.18;;;;;;;;;;4914496;28;20444;-86
2022/03/12 07:43:53;;;;;;;13.88;8.82;;;;;;;8.52;55.29;67720.97;5089764;28;20174;-84
2022/03/12 07:46:19;;;;;;;13.07;8.73;;;;;;;8.55;56.44;67723.81;5044451;28;20029;-86
2022/03/12 07:48:44;;;;;;;12.50;8.40;;;;;;;8.61;56.54;67733.25;5079810;28;20062;-86
2022/03/12 07:51:10;;;;;;;15.60;9.35;;;;;;;8.68;56.58;67738.53;5068502;28;20041;-84
2022/03/12 07:53:36;;;;;;;13.45;8.85;;;;;;;8.69;56.79;67742.31;5080600;28;20047;-85
2022/03/12 07:56:03;;;;;;;14.75;8.38;;;;;;;8.74;56.56;67745.31;5076165;28;20562;-86
2022/03/12 07:58:29;;;;;;;14.77;8.63;;;;;;;8.78;56.54;67754.63;5069708;28;20062;-85
2022/03/12 08:00:56;;;;;;;12.48;9.10;;;;;;;8.81;57.38;67755.34;5088992;28;20480;-85
2022/03/12 08:03:23;;;;;;;13.85;7.47;;;;;;;8.84;57.32;67758.19;5069545;28;20044;-86
2022/03/12 08:05:49;;;;;;;14.48;8.32;;;;;;;8.89;57.46;67761.19;5080956;28;20040;-85
2022/03/12 08:08:14;;;;;;;14.77;8.82;;;;;;;8.96;58.46;67772.34;5072757;28;20093;-85
2022/03/12 08:13:23;;;;;;;12.75;8.15;;;;;;;9.03;57.76;67772.31;5083471;28;20538;-82
2022/03/12 08:15:49;;;;;;;12.70;9.02;;;;;;;9.09;58.68;67783.88;5071005;28;20056;-87
2022/03/12 08:18:15;;;;;;;13.10;9.85;;;;;;;9.13;59.04;67790.50;5079794;28;20036;-86
2022/03/12 08:20:40;;;;;;;16.95;9.25;;;;;;;9.20;57.88;67798.97;5069317;28;20034;-84
2022/03/12 08:23:08;;;;;;;12.32;8.57;;;;;;;;;;5072549;28;20368;-87
2022/03/12 08:25:33;;;;;;;14.70;9.32;;;;;;;9.42;58.88;67820.13;5072623;28;20042;-84
2022/03/12 08:27:58;;;;;;;13.52;8.10;;;;;;;;;;5088259;28;20396;-82
2022/03/12 08:30:24;;;;;;;14.40;8.73;;;;;;;;;;5069303;28;20094;-86
2022/03/12 08:32:50;;;;;;;13.38;9.13;;;;;;;9.54;59.49;67836.41;5064128;28;20043;-84
2022/03/12 08:35:16;;;;;;;12.82;8.27;;;;;;;;;;5082032;28;20034;-84
2022/03/12 08:37:41;;;;;;;14.43;9.30;;;;;;;;;;5078037;28;20052;-84
2022/03/12 08:40:08;;;;;;;14.60;9.13;;;;;;;9.77;59.14;67853.38;5085884;28;20060;-86
2022/03/12 08:42:34;;;;;;;13.27;8.13;;;;;;;9.85;59.08;67859.78;5083582;28;20123;-83
2022/03/12 08:45:00;;;;;;;12.68;8.20;;;;;;;9.88;58.88;67874.38;5085309;28;20044;-85
2022/03/12 08:47:25;;;;;;;14.13;8.73;;;;;;;;;;5086355;28;20039;-85
2022/03/12 08:49:50;;;;;;;11.93;8.90;;;;;;;10.03;59.68;67887.59;5082763;28;20450;-85
2022/03/12 08:52:16;;;;;;;12.32;8.05;;;;;;;10.04;59.83;67891.97;5086666;28;21067;-84
2022/03/12 08:54:41;;;;;;;11.23;8.18;;;;;;;10.07;59.14;67892.72;5083134;28;20044;-85
2022/03/12 08:57:07;;;;;;;12.52;8.70;;;;;;;10.12;60.12;67898.38;5076467;28;20040;-83
2022/03/12 08:59:33;;;;;;;12.68;8.35;;;;;;;10.22;60.04;67909.16;5080824;28;20036;-84
2022/03/12 09:01:58;;;;;;;13.50;8.30;;;;;;;;;;5079955;28;20049;-85
2022/03/12 09:04:24;;;;;;;12.05;8.63;;;;;;;10.35;60.13;67926.03;5081484;28;20133;-87
2022/03/12 09:06:49;;;;;;;12.00;7.55;;;;;;;10.49;61.43;67939.25;5084783;28;20047;-83
2022/03/12 09:09:15;;;;;;;11.75;8.27;;;;;;;;;;5079125;28;20040;-86
2022/03/12 09:11:41;;;;;;;11.82;7.93;;;;;;;10.56;60.10;67946.63;5068762;28;20149;-87
2022/03/12 09:14:06;;;;;;;13.48;8.40;;;;;;;10.63;61.46;67954.00;5082469;28;20698;-84
2022/03/12 09:16:32;;;;;;;11.27;7.95;;;;;;;;;;5075836;28;20051;-88
2022/03/12 09:18:57;;;;;;;13.63;8.75;;;;;;;10.83;61.72;67976.72;5086418;28;20538;-85
2022/03/12 09:21:23;;;;;;;13.45;8.48;;;;;;;10.89;61.64;67977.63;5083734;28;20699;-86
2022/03/12 09:23:49;;;;;;;14.23;8.45;;;;;;;10.93;61.75;67987.47;5067472;28;20041;-85
2022/03/12 09:26:17;;;;;;;11.02;7.68;;;;;;;11.02;61.56;68000.94;5080807;28;20089;-87
2022/03/12 09:28:42;;;;;;;10.85;7.97;;;;;;;11.14;62.33;68010.78;5070837;28;20066;-83
2022/03/12 09:31:09;;;;;;;13.23;7.45;;;;;;;11.26;61.96;68019.06;5053567;28;20068;-85
2022/03/12 09:33:35;;;;;;;12.52;8.73;;;;;;;11.37;62.46;68036.31;5074392;28;20083;-83
2022/03/12 09:36:01;;;;;;;13.82;7.78;;;;;;;11.42;62.06;68042.56;5106648;27;20036;-84
2022/03/12 09:38:27;;;;;;;11.85;8.15;;;;;;;;;;5092739;28;20442;-84
2022/03/12 09:40:52;;;;;;;10.70;7.38;;;;;;;11.55;63.39;68056.75;5094740;27;20072;-85
2022/03/12 09:43:18;;;;;;;9.80;7.55;;;;;;;;;;5095711;28;20085;-84
2022/03/12 09:45:43;;;;;;;13.25;7.78;;;;;;;;;;5088021;27;20038;-84
2022/03/12 09:48:09;;;;;;;12.77;7.50;;;;;;;11.77;63.79;68080.59;5078383;28;20093;-85
2022/03/12 09:50:34;;;;;;;11.10;5.95;;;;;;;11.75;64.23;68078.91;5113733;27;20036;-85
2022/03/12 09:53:00;;;;;;;14.40;7.38;;;;;;;11.80;64.37;68079.25;5091299;28;20048;-86
2022/03/12 09:55:25;;;;;;;10.02;6.78;;;;;;;;;;5088641;28;20124;-84
2022/03/12 09:57:51;;;;;;;11.85;6.68;;;;;;;;;;5072626;27;20419;-84
2022/03/12 10:00:18;;;;;;;10.35;5.97;;;;;;;11.80;64.29;68084.59;5090098;28;20044;-84
2022/03/12 10:02:43;;;;;;;13.85;6.70;;;;;;;;;;5090406;28;20032;-86
2022/03/12 10:05:13;;;;;;;12.32;7.25;;;;;;;11.91;65.00;68096.53;5093932;28;20401;-85
2022/03/12 10:07:41;;;;;;;14.90;7.10;;;;;;;;;;5086769;27;20036;-86
2022/03/12 10:10:10;;;;;;;10.83;7.07;;;;;;;;;;5090537;28;20141;-84
2022/03/12 10:12:36;;;;;;;13.73;7.07;;;;;;;11.81;65.85;68085.16;5084353;28;20044;-84
2022/03/12 10:15:01;;;;;;;9.43;7.05;;;;;;;11.94;66.32;68100.50;5077150;28;20043;-85
2022/03/12 10:17:30;;;;;;;13.52;7.78;;;;;;;12.07;65.55;68114.13;5079467;28;20131;-87
2022/03/12 10:19:56;;;;;;;11.90;7.80;;;;;;;12.09;65.43;68116.41;5091659;28;20055;-86
2022/03/12 10:22:23;;;;;;;10.55;7.53;;;;;;;12.12;65.93;68120.38;5088184;28;20063;-85
2022/03/12 10:24:49;;;;;;;11.40;6.65;;;;;;;12.16;65.92;68119.03;5079320;28;20048;-87
2022/03/12 10:27:14;;;;;;;11.93;6.95;;;;;;;12.13;65.81;68120.97;5089804;28;20062;-84
2022/03/12 10:29:39;;;;;;;17.48;6.95;;;;;;;12.13;65.65;68121.53;5076446;27;20032;-85
2022/03/12 10:32:25;;;;;;;13.18;7.60;;;;;;;12.12;65.93;68115.06;5076538;28;20051;-88
2022/03/12 10:34:52;;;;;;;11.73;7.20;;;;;;;;;;5087049;27;20059;-87
2022/03/12 10:37:21;;;;;;;10.88;7.30;;;;;;;;;;5109136;27;20070;-85
2022/03/12 10:39:47;;;;;;;12.15;7.22;;;;;;;;;;5093270;27;20111;-86
2022/03/12 10:42:13;;;;;;;9.65;6.25;;;;;;;;;;5091065;28;20503;-86
2022/03/12 10:44:41;;;;;;;11.82;6.57;;;;;;;;;;5080355;27;20084;-86
2022/03/12 10:47:19;;;;;;;10.80;6.88;;;;;;;;;;5078360;28;20047;-85
2022/03/12 10:50:00;;;;;;;11.60;7.70;;;;;;;12.35;65.44;68145.41;5077997;28;20048;-86
2022/03/12 10:52:30;;;;;;;11.10;6.90;;;;;;;;;;5096936;28;20040;-85
2022/03/12 10:54:55;;;;;;;;;;;;;;;12.42;65.39;68148.56;5094804;28;20043;-84
2022/03/12 10:57:21;;;;;;;10.77;6.70;;;;;;;;;;5065925;28;20291;-83
2022/03/12 10:59:46;;;;;;;12.13;6.97;;;;;;;12.45;65.64;68150.84;5089463;28;20044;-86
2022/03/12 11:02:15;;;;;;;10.48;7.07;;;;;;;12.57;65.65;68165.06;5078487;28;20055;-84
2022/03/12 11:04:40;;;;;;;11.07;7.10;;;;;;;12.57;64.63;68164.47;5085440;27;20044;-85
2022/03/12 11:07:24;;;;;;;10.00;6.78;;;;;;;;;;5078920;28;20085;-85
2022/03/12 11:09:50;;;;;;;11.05;6.70;;;;;;;12.75;64.86;68190.28;5094133;28;20040;-86
2022/03/12 11:12:30;;;;;;;10.95;7.35;;;;;;;12.84;64.59;68200.53;5079019;28;20039;-86
2022/03/12 11:15:15;;;;;;;11.50;6.47;;;;;;;12.98;63.41;68215.88;5088525;28;20051;-84
2022/03/12 11:17:46;;;;;;;10.25;6.85;;;;;;;13.05;63.93;68223.25;5078596;28;20108;-87
2022/03/12 11:20:18;;;;;;;10.40;6.43;;;;;;;13.12;62.86;68225.88;5085677;28;20469;-85
2022/03/12 11:22:47;;;;;;;11.13;6.63;;;;;;;;;;5099214;27;20374;-85
2022/03/12 11:25:19;;;;;;;13.18;7.47;;;;;;;;;;5103265;27;20118;-84
2022/03/12 11:27:59;;;;;;;11.40;7.45;;;;;;;13.29;62.14;68245.22;5107189;27;20051;-84
2022/03/12 11:30:24;;;;;;;11.30;7.15;;;;;;;13.22;62.06;68237.25;5078671;28;20161;-85
2022/03/12 11:33:05;;;;;;;12.45;7.40;;;;;;;13.32;62.26;68248.06;5084296;27;20118;-83
2022/03/12 11:35:35;;;;;;;12.15;7.60;;;;;;;13.28;61.35;68249.44;5089552;28;20044;-86
2022/03/12 11:38:15;;;;;;;12.13;7.53;;;;;;;13.34;62.36;68260.47;5086868;28;20495;-88
2022/03/12 11:40:46;;;;;;;11.02;7.45;;;;;;;13.37;61.68;68261.22;5115629;27;20368;-86
2022/03/12 11:43:26;;;;;;;12.40;7.20;;;;;;;13.38;60.68;68259.66;5087612;28;20063;-83
2022/03/12 11:45:53;;;;;;;12.15;6.22;;;;;;;13.48;60.99;68271.03;5094756;27;20138;-85
2022/03/12 11:48:21;;;;;;;12.13;6.93;;;;;;;;;;5081171;28;20051;-84
2022/03/12 11:50:48;;;;;;;9.05;6.47;;;;;;;13.66;60.71;68286.16;5070731;28;20050;-82
2022/03/12 11:53:15;;;;;;;9.32;6.60;;;;;;;;;;5092798;27;20051;-83
2022/03/12 11:55:40;;;;;;;13.75;6.72;;;;;;;13.81;59.51;68300.00;5077061;28;20511;-83
2022/03/12 11:58:06;;;;;;;12.32;6.72;;;;;;;13.90;60.12;68312.34;5079718;28;20052;-85
2022/03/12 12:00:31;;;;;;;12.60;6.88;;;;;;;;;;5081371;28;20056;-86